LIMJ METAR and TAF | Updated Today

LIMJ METAR

Genoa Cristoforo Colombo Airport

Observation time: 24 min. ago

LIMJ 062050Z 36005KT CAVOK 19/16 Q1027

Need help? Read our tutorial on how to read METARs or read the parsed version below.

Genoa Cristoforo Colombo Airport (LIMJ) METAR

  • Weather conditions on Thu, 06 Oct 2022 20:50:00 +0000 (24 min. ago):
  • Present conditions: Dry
  • Clouds: Clear skies
  • Visibility: Greater than 10 km
  • Wind: 360 degrees at 5 knots
  • Temperature: 19 celsius
  • Dew point: 16 celsius
  • Pressure: 1027 millibars
  • Remarks: None


Useful to know...

LIMJ TAF

Genoa Cristoforo Colombo Airport

TAF LIMJ 061700Z 0618/0718 02006KT CAVOK
Observation time: 4:14 hr. ago
Need help? Read our tutorial on how to read TAFs or read the parsed version below.

Parsed version of TAF for Genoa Cristoforo Colombo Airport (LIMJ)

  • From 06 October at 18:00 UTC, to day 07 of the month at 18:00 UTC
  • Visibility: Greater than 10 km
  • Wind: 20 degrees at 6